Time;durP1;ratioP1;P1;durP2;ratioP2;P2;SDS_P1;SDS_P2;PMS_P1;PMS_P2;Temp;Humidity;BMP_temperature;BMP_pressure;BME280_temperature;BME280_humidity;BME280_pressure;Samples;Min_cycle;Max_cycle;Signal;HPM_P1;HPM_P2
2023/12/23 00:00:57;;;;;;;0.10;0.10;;;;;;;;;;5102325;28;20048;-91
2023/12/23 00:03:26;;;;;;;0.10;0.10;;;;;;;;;;5083985;28;20044;-91
2023/12/23 00:06:04;;;;;;;0.10;0.10;;;;;;;;;;5086501;28;20052;-91
2023/12/23 00:08:35;;;;;;;0.15;0.05;;;;;;;;;;5102175;28;20111;-91
2023/12/23 00:11:16;;;;;;;0.00;0.00;;;;;;;;;;5088462;28;20056;-91
2023/12/23 00:13:56;;;;;;;0.00;0.00;;;;;;;;;;5088515;28;20112;-92
2023/12/23 00:16:37;;;;;;;0.08;0.08;;;;;;;;;;5087744;28;20360;-92
2023/12/23 00:19:11;;;;;;;0.00;0.00;;;;;;;;;;5085220;28;20051;-92
2023/12/23 00:21:45;;;;;;;0.00;0.00;;;;;;;;;;5088236;28;20058;-92
2023/12/23 00:24:18;;;;;;;0.00;0.00;;;;;;;;;;5092918;28;20032;-92
2023/12/23 00:26:51;;;;;;;0.00;0.00;;;;;;;;;;5086052;28;20109;-92
2023/12/23 00:29:27;;;;;;;0.10;0.10;;;;;;;;;;5105237;28;20372;-92
2023/12/23 00:32:06;;;;;;;1.75;0.30;;;;;;;;;;5091501;28;20048;-91
2023/12/23 00:34:46;;;;;;;0.00;0.00;;;;;;;;;;5085068;28;20044;-91
2023/12/23 00:37:21;;;;;;;0.10;0.10;;;;;;;;;;5086610;28;20048;-90
2023/12/23 00:39:59;;;;;;;0.05;0.05;;;;;;;;;;5089212;28;20222;-91
2023/12/23 00:42:39;;;;;;;0.10;0.10;;;;;;;;;;5088018;28;20060;-91
2023/12/23 00:45:20;;;;;;;0.00;0.00;;;;;;;;;;5086657;28;20073;-90
2023/12/23 00:47:59;;;;;;;1.48;0.47;;;;;;;;;;5085566;28;20052;-91
2023/12/23 00:50:42;;;;;;;0.25;0.25;;;;;;;;;;5100388;28;20052;-91
2023/12/23 00:53:19;;;;;;;0.10;0.10;;;;;;;;;;5105126;28;20051;-91
2023/12/23 00:55:51;;;;;;;0.10;0.10;;;;;;;;;;5101847;28;20059;-92
2023/12/23 00:58:23;;;;;;;0.10;0.10;;;;;;;;;;5085998;28;20048;-92
2023/12/23 01:01:05;;;;;;;0.10;0.10;;;;;;;;;;5086692;28;20045;-92
2023/12/23 01:03:32;;;;;;;0.10;0.10;;;;;;;;;;5086838;28;20063;-92
2023/12/23 01:06:02;;;;;;;0.10;0.10;;;;;;;;;;5085501;28;20048;-90
2023/12/23 01:08:31;;;;;;;0.00;0.00;;;;;;;;;;5085627;28;20105;-91
2023/12/23 01:11:05;;;;;;;0.10;0.10;;;;;;;;;;5086913;28;20052;-91
2023/12/23 01:13:37;;;;;;;0.10;0.10;;;;;;;;;;5086611;28;20048;-91
2023/12/23 01:16:16;;;;;;;0.00;0.00;;;;;;;;;;5092552;28;20036;-92
2023/12/23 01:18:44;;;;;;;0.10;0.10;;;;;;;;;;5089594;28;20139;-91
2023/12/23 01:21:23;;;;;;;0.08;0.08;;;;;;;;;;5085830;28;20048;-91
2023/12/23 01:23:54;;;;;;;0.00;0.00;;;;;;;;;;5085273;28;20142;-91
2023/12/23 01:30:09;;;;;;;0.10;0.10;;;;;;;;;;5082248;28;20274;-91
2023/12/23 01:32:41;;;;;;;0.10;0.10;;;;;;;;;;5085782;28;20063;-91
2023/12/23 01:35:25;;;;;;;0.10;0.10;;;;;;;;;;5087189;28;20040;-90
2023/12/23 01:37:55;;;;;;;0.00;0.00;;;;;;;;;;5088370;28;20289;-90
2023/12/23 01:40:36;;;;;;;0.38;0.10;;;;;;;;;;5089948;28;20128;-91
2023/12/23 01:43:18;;;;;;;0.00;0.00;;;;;;;;;;5090075;28;20174;-91
2023/12/23 01:45:48;;;;;;;0.05;0.05;;;;;;;;;;5089167;28;20070;-91
2023/12/23 01:48:31;;;;;;;0.10;0.10;;;;;;;;;;5095417;28;20048;-90
2023/12/23 01:51:07;;;;;;;0.00;0.00;;;;;;;;;;5090741;28;20052;-91
2023/12/23 01:53:43;;;;;;;0.00;0.00;;;;;;;;;;5091041;28;20058;-91
2023/12/23 01:56:30;;;;;;;0.00;0.00;;;;;;;;;;5094734;28;20100;-91
2023/12/23 01:59:10;;;;;;;0.30;0.30;;;;;;;;;;5094114;28;20035;-91
2023/12/23 02:01:51;;;;;;;0.00;0.00;;;;;;;;;;5093885;28;20581;-91
2023/12/23 02:04:22;;;;;;;0.10;0.10;;;;;;;;;;5094865;28;20127;-91
2023/12/23 02:06:51;;;;;;;0.57;0.57;;;;;;;;;;5092283;28;20048;-91
2023/12/23 02:09:21;;;;;;;0.00;0.00;;;;;;;;;;5091414;28;20078;-91
2023/12/23 02:12:04;;;;;;;0.00;0.00;;;;;;;;;;5088297;28;20103;-91
2023/12/23 02:14:45;;;;;;;0.47;0.25;;;;;;;;;;5103922;28;20052;-91
2023/12/23 02:17:26;;;;;;;;;;;;;;;;;;5104379;28;20278;-92
2023/12/23 02:20:07;;;;;;;0.10;0.10;;;;;;;;;;5088781;28;19927;-91
2023/12/23 02:22:48;;;;;;;0.03;0.03;;;;;;;;;;5087890;28;20076;-91
2023/12/23 02:25:30;;;;;;;0.10;0.10;;;;;;;;;;5088864;28;20060;-91
2023/12/23 02:28:09;;;;;;;0.00;0.00;;;;;;;;;;5090936;28;20064;-90
2023/12/23 02:30:39;;;;;;;0.00;0.00;;;;;;;;;;5089504;28;20040;-91
2023/12/23 02:33:07;;;;;;;0.08;0.08;;;;;;;;;;5096004;28;20040;-90
2023/12/23 02:35:40;;;;;;;0.08;0.08;;;;;;;;;;5096351;28;20044;-91
2023/12/23 02:38:12;;;;;;;0.10;0.10;;;;;;;;;;5096645;28;20055;-90
2023/12/23 02:40:53;;;;;;;0.00;0.00;;;;;;;;;;5095635;28;20048;-92
2023/12/23 02:43:30;;;;;;;0.38;0.20;;;;;;;;;;5096550;28;20032;-91
2023/12/23 02:46:04;;;;;;;0.10;0.10;;;;;;;;;;5095826;28;20052;-91
2023/12/23 02:53:46;;;;;;;0.00;0.00;;;;;;;;;;5546397;22;20044;-90
2023/12/23 02:56:27;;;;;;;0.32;0.25;;;;;;;;;;5088374;28;20076;-90
2023/12/23 02:59:00;;;;;;;0.80;0.80;;;;;;;;;;5108816;28;20032;-90
2023/12/23 03:01:33;;;;;;;0.00;0.00;;;;;;;;;;5087798;28;20034;-91
2023/12/23 03:04:02;;;;;;;0.00;0.00;;;;;;;;;;5087220;28;20048;-90
2023/12/23 03:06:32;;;;;;;0.00;0.00;;;;;;;;;;5085875;28;20492;-91
2023/12/23 03:09:03;;;;;;;0.40;0.40;;;;;;;;;;5085817;28;20086;-91
2023/12/23 03:11:37;;;;;;;0.00;0.00;;;;;;;;;;5087748;28;20035;-91
2023/12/23 03:14:05;;;;;;;0.03;0.03;;;;;;;;;;5093177;28;20036;-91
2023/12/23 03:16:36;;;;;;;0.75;0.73;;;;;;;;;;5086351;28;20086;-92
2023/12/23 03:19:09;;;;;;;0.00;0.00;;;;;;;;;;5086435;28;20111;-92
2023/12/23 03:21:43;;;;;;;6.60;0.38;;;;;;;;;;5084642;28;20399;-91
2023/12/23 03:24:14;;;;;;;0.05;0.05;;;;;;;;;;5085985;28;20051;-91
2023/12/23 03:26:57;;;;;;;0.00;0.00;;;;;;;;;;5085709;28;20090;-91
2023/12/23 03:29:26;;;;;;;0.10;0.10;;;;;;;;;;5105341;28;20111;-91
2023/12/23 03:31:53;;;;;;;0.00;0.00;;;;;;;;;;5085272;28;20048;-92
2023/12/23 03:34:38;;;;;;;0.00;0.00;;;;;;;;;;5087279;28;20052;-91
2023/12/23 03:37:09;;;;;;;0.00;0.00;;;;;;;;;;5085677;28;20316;-92
2023/12/23 03:39:38;;;;;;;0.00;0.00;;;;;;;;;;5085293;28;20066;-92
2023/12/23 03:42:10;;;;;;;0.00;0.00;;;;;;;;;;5086281;28;20118;-92
2023/12/23 03:44:43;;;;;;;4.90;0.95;;;;;;;;;;5085128;28;20428;-91
2023/12/23 03:47:11;;;;;;;0.00;0.00;;;;;;;;;;5085508;28;20112;-91
2023/12/23 03:49:39;;;;;;;0.00;0.00;;;;;;;;;;5085178;28;20079;-91
2023/12/23 03:52:08;;;;;;;0.00;0.00;;;;;;;;;;5087543;28;20206;-90
2023/12/23 03:54:37;;;;;;;0.50;0.10;;;;;;;;;;5084927;28;20064;-91
2023/12/23 03:57:07;;;;;;;0.00;0.00;;;;;;;;;;5085667;28;20048;-91
2023/12/23 03:59:34;;;;;;;0.20;0.20;;;;;;;;;;5102091;28;20100;-91
2023/12/23 04:02:05;;;;;;;0.00;0.00;;;;;;;;;;5084411;28;20075;-91
2023/12/23 04:04:39;;;;;;;0.00;0.00;;;;;;;;;;5084976;28;20178;-90
2023/12/23 04:07:07;;;;;;;0.00;0.00;;;;;;;;;;5085562;28;20385;-91
2023/12/23 04:09:42;;;;;;;0.00;0.00;;;;;;;;;;5087417;28;20210;-91
2023/12/23 04:12:11;;;;;;;0.00;0.00;;;;;;;;;;5084813;28;20052;-91
2023/12/23 04:14:42;;;;;;;0.00;0.00;;;;;;;;;;5087951;28;20052;-91
2023/12/23 04:17:20;;;;;;;0.00;0.00;;;;;;;;;;5101707;28;20042;-91
2023/12/23 04:19:56;;;;;;;0.00;0.00;;;;;;;;;;5085357;28;20052;-91
2023/12/23 04:22:27;;;;;;;0.00;0.00;;;;;;;;;;5101047;28;20087;-91
2023/12/23 04:24:56;;;;;;;0.00;0.00;;;;;;;;;;5085133;28;20051;-91
2023/12/23 04:27:38;;;;;;;0.00;0.00;;;;;;;;;;5083194;28;20046;-91
2023/12/23 04:30:07;;;;;;;0.00;0.00;;;;;;;;;;5086617;28;20104;-91
2023/12/23 04:32:35;;;;;;;0.25;0.25;;;;;;;;;;5083326;28;20074;-91
2023/12/23 04:35:16;;;;;;;0.00;0.00;;;;;;;;;;5082498;28;20056;-91
2023/12/23 04:37:47;;;;;;;0.00;0.00;;;;;;;;;;5089343;28;20054;-91
2023/12/23 04:40:15;;;;;;;0.00;0.00;;;;;;;;;;5104572;28;20098;-91
2023/12/23 04:42:59;;;;;;;0.00;0.00;;;;;;;;;;5086301;28;20065;-91
2023/12/23 04:45:35;;;;;;;0.00;0.00;;;;;;;;;;5084910;28;20055;-92
2023/12/23 04:48:08;;;;;;;0.00;0.00;;;;;;;;;;5086276;28;20055;-92
2023/12/23 04:50:41;;;;;;;0.00;0.00;;;;;;;;;;5083279;28;20048;-91
2023/12/23 04:53:22;;;;;;;0.00;0.00;;;;;;;;;;5084373;28;20055;-91
2023/12/23 04:56:01;;;;;;;0.00;0.00;;;;;;;;;;5084527;28;20056;-90
2023/12/23 04:58:41;;;;;;;0.00;0.00;;;;;;;;;;5084909;28;20139;-91
2023/12/23 05:01:10;;;;;;;0.00;0.00;;;;;;;;;;5085239;28;20083;-91
2023/12/23 05:03:39;;;;;;;0.00;0.00;;;;;;;;;;5083975;28;20069;-90
2023/12/23 05:06:19;;;;;;;0.00;0.00;;;;;;;;;;5086079;28;20052;-91
2023/12/23 05:08:47;;;;;;;0.00;0.00;;;;;;;;;;5084565;28;20044;-91
2023/12/23 05:11:19;;;;;;;0.00;0.00;;;;;;;;;;5085758;28;20079;-91
2023/12/23 05:21:34;;;;;;;0.00;0.00;;;;;;;;;;5063011;28;20061;-90
2023/12/23 05:24:02;;;;;;;0.00;0.00;;;;;;;;;;5049958;28;20049;-90
2023/12/23 05:26:34;;;;;;;0.00;0.00;;;;;;;;;;5055771;28;20056;-91
2023/12/23 05:29:10;;;;;;;0.00;0.00;;;;;;;;;;5050511;28;20107;-91
2023/12/23 05:31:38;;;;;;;0.00;0.00;;;;;;;;;;5048484;28;20062;-92
2023/12/23 05:34:09;;;;;;;0.00;0.00;;;;;;;;;;5050461;28;20048;-91
2023/12/23 05:36:41;;;;;;;0.00;0.00;;;;;;;;;;5052336;28;20044;-92
2023/12/23 05:39:22;;;;;;;0.00;0.00;;;;;;;;;;5041731;28;20053;-91
2023/12/23 05:41:51;;;;;;;0.00;0.00;;;;;;;;;;5048067;28;20053;-91
2023/12/23 05:44:21;;;;;;;0.00;0.00;;;;;;;;;;5049318;28;20044;-91
2023/12/23 05:46:48;;;;;;;0.00;0.00;;;;;;;;;;5050665;28;20417;-91
2023/12/23 05:49:23;;;;;;;0.00;0.00;;;;;;;;;;5048707;28;20111;-91
2023/12/23 05:51:53;;;;;;;0.00;0.00;;;;;;;;;;5047103;28;20875;-91
2023/12/23 05:54:21;;;;;;;0.00;0.00;;;;;;;;;;5047270;28;20080;-91
2023/12/23 05:56:53;;;;;;;0.03;0.03;;;;;;;;;;5048265;28;20140;-91
2023/12/23 05:59:34;;;;;;;0.00;0.00;;;;;;;;;;5049788;28;20075;-92
2023/12/23 06:02:04;;;;;;;0.00;0.00;;;;;;;;;;5048794;28;20055;-92
2023/12/23 06:04:41;;;;;;;0.00;0.00;;;;;;;;;;5053685;28;20113;-91
2023/12/23 06:07:10;;;;;;;0.00;0.00;;;;;;;;;;5046942;28;20048;-92
2023/12/23 06:09:53;;;;;;;0.00;0.00;;;;;;;;;;5046892;28;20244;-91
2023/12/23 06:12:23;;;;;;;0.00;0.00;;;;;;;;;;5047290;28;20048;-90
2023/12/23 06:14:57;;;;;;;0.00;0.00;;;;;;;;;;5047230;28;20049;-92
2023/12/23 06:17:38;;;;;;;0.00;0.00;;;;;;;;;;5047716;28;20031;-91
2023/12/23 06:20:13;;;;;;;0.00;0.00;;;;;;;;;;5046108;28;20044;-92
2023/12/23 06:22:48;;;;;;;1.08;1.08;;;;;;;;;;5046391;28;20037;-91
2023/12/23 06:25:32;;;;;;;0.00;0.00;;;;;;;;;;5050235;28;20024;-92
2023/12/23 06:28:05;;;;;;;0.00;0.00;;;;;;;;;;5048257;28;20048;-92
2023/12/23 06:30:33;;;;;;;0.00;0.00;;;;;;;;;;5046735;28;20056;-92
2023/12/23 06:33:01;;;;;;;0.00;0.00;;;;;;;;;;5046278;28;20476;-92
2023/12/23 06:42:41;;;;;;;0.00;0.00;;;;;;;;;;5063147;28;20067;-91
2023/12/23 06:45:18;;;;;;;0.00;0.00;;;;;;;;;;5046685;28;20058;-91
2023/12/23 06:47:59;;;;;;;0.00;0.00;;;;;;;;;;5046954;28;20072;-92
2023/12/23 06:50:45;;;;;;;0.00;0.00;;;;;;;;;;5047131;28;20076;-92
2023/12/23 06:53:16;;;;;;;0.00;0.00;;;;;;;;;;5046589;28;20048;-91
2023/12/23 06:55:54;;;;;;;0.00;0.00;;;;;;;;;;5047755;28;20056;-91
2023/12/23 06:58:35;;;;;;;0.00;0.00;;;;;;;;;;5048453;28;20041;-91
2023/12/23 07:01:16;;;;;;;0.00;0.00;;;;;;;;;;5048050;28;20064;-91
2023/12/23 07:03:45;;;;;;;0.00;0.00;;;;;;;;;;5048440;28;20052;-92
2023/12/23 07:06:18;;;;;;;0.00;0.00;;;;;;;;;;5047614;28;20109;-92
2023/12/23 07:08:49;;;;;;;0.00;0.00;;;;;;;;;;5046763;28;20056;-92
2023/12/23 07:11:30;;;;;;;0.00;0.00;;;;;;;;;;5048001;28;20154;-92
2023/12/23 07:14:01;;;;;;;0.80;0.80;;;;;;;;;;5047166;28;20045;-92
2023/12/23 07:16:39;;;;;;;0.00;0.00;;;;;;;;;;5047079;28;20053;-92
2023/12/23 07:19:13;;;;;;;0.00;0.00;;;;;;;;;;5045285;28;20059;-92
2023/12/23 07:21:41;;;;;;;0.00;0.00;;;;;;;;;;5044651;28;20124;-92
2023/12/23 07:24:09;;;;;;;0.00;0.00;;;;;;;;;;5047282;28;20135;-93
2023/12/23 07:26:42;;;;;;;0.00;0.00;;;;;;;;;;5046312;28;20049;-92
2023/12/23 07:29:14;;;;;;;0.00;0.00;;;;;;;;;;5051535;28;20053;-93
2023/12/23 07:31:44;;;;;;;0.00;0.00;;;;;;;;;;5046502;28;20049;-92
2023/12/23 07:34:13;;;;;;;0.00;0.00;;;;;;;;;;5062569;28;20099;-91
2023/12/23 07:36:43;;;;;;;0.00;0.00;;;;;;;;;;5045677;28;20474;-92
2023/12/23 07:39:24;;;;;;;0.00;0.00;;;;;;;;;;5046439;28;20059;-91
2023/12/23 07:41:53;;;;;;;0.00;0.00;;;;;;;;;;5045453;28;20060;-92
2023/12/23 07:44:36;;;;;;;0.00;0.00;;;;;;;;;;5043883;28;20048;-92
2023/12/23 07:47:09;;;;;;;0.00;0.00;;;;;;;;;;5045292;28;20052;-91
2023/12/23 07:49:37;;;;;;;0.00;0.00;;;;;;;;;;5044431;28;20049;-91
2023/12/23 07:52:09;;;;;;;0.00;0.00;;;;;;;;;;5044725;28;20065;-91
2023/12/23 07:54:53;;;;;;;0.00;0.00;;;;;;;;;;5049642;28;20052;-90
2023/12/23 08:00:46;;;;;;;0.00;0.00;;;;;;;;;;5062260;28;20044;-91
2023/12/23 08:03:29;;;;;;;0.00;0.00;;;;;;;;;;5045337;28;20044;-90
2023/12/23 08:06:06;;;;;;;0.00;0.00;;;;;;;;;;5045246;28;20140;-91
2023/12/23 08:08:36;;;;;;;0.00;0.00;;;;;;;;;;5045610;28;20061;-91
2023/12/23 08:11:04;;;;;;;0.00;0.00;;;;;;;;;;5046692;28;20497;-91
2023/12/23 08:13:45;;;;;;;0.00;0.00;;;;;;;;;;5062537;28;20349;-92
2023/12/23 08:16:15;;;;;;;0.00;0.00;;;;;;;;;;5045746;28;20053;-92
2023/12/23 08:18:47;;;;;;;0.00;0.00;;;;;;;;;;5138706;22;20157;-92
2023/12/23 08:21:33;;;;;;;0.05;0.05;;;;;;;;;;5085193;28;20058;-92
2023/12/23 08:24:16;;;;;;;0.00;0.00;;;;;;;;;;5086956;28;20110;-90
2023/12/23 08:26:57;;;;;;;0.00;0.00;;;;;;;;;;5086374;28;20048;-89
2023/12/23 08:29:33;;;;;;;0.05;0.05;;;;;;;;;;5085860;28;20054;-92
2023/12/23 08:32:02;;;;;;;0.00;0.00;;;;;;;;;;5085775;28;20059;-91
2023/12/23 08:34:32;;;;;;;0.00;0.00;;;;;;;;;;5084729;28;20052;-91
2023/12/23 08:37:02;;;;;;;0.03;0.03;;;;;;;;;;5083247;28;20078;-92
2023/12/23 08:39:31;;;;;;;0.00;0.00;;;;;;;;;;5083867;28;20116;-91
2023/12/23 08:42:12;;;;;;;0.00;0.00;;;;;;;;;;5084678;28;20079;-92
2023/12/23 08:44:53;;;;;;;0.00;0.00;;;;;;;;;;5086818;28;20036;-91
2023/12/23 08:47:24;;;;;;;0.00;0.00;;;;;;;;;;5104229;28;20055;-91
2023/12/23 08:49:58;;;;;;;0.00;0.00;;;;;;;;;;5090480;28;20060;-91
2023/12/23 08:52:34;;;;;;;0.00;0.00;;;;;;;;;;5089594;28;20499;-92
2023/12/23 08:55:03;;;;;;;0.00;0.00;;;;;;;;;;5095825;28;20052;-92
2023/12/23 08:57:44;;;;;;;0.10;0.10;;;;;;;;;;5091646;28;20048;-90
2023/12/23 16:48:48;;;;;;;0.10;0.10;;;;;;;;;;6153180;23;20040;-93
2023/12/23 16:52:06;;;;;;;0.10;0.10;;;;;;;;;;6151750;23;20425;-92
2023/12/23 17:01:44;;;;;;;0.63;0.63;;;;;;;;;;6167070;23;20045;-94
2023/12/23 17:04:35;;;;;;;;;;;;;;;;;;;;;
2023/12/23 17:10:17;;;;;;;;;;;;;;;;;;;;;
2023/12/23 17:23:40;;;;;;;0.13;0.13;;;;;;;;;;6211233;23;20106;-93
2023/12/23 17:32:48;;;;;;;0.10;0.10;;;;;;;;;;6150103;23;20533;-93
2023/12/23 17:35:53;;;;;;;0.10;0.10;;;;;;;;;;6171862;23;20040;-93
2023/12/23 17:39:08;;;;;;;0.28;0.28;;;;;;;;;;6131926;23;20010;-90
2023/12/23 17:45:20;;;;;;;0.20;0.20;;;;;;;;;;6145974;23;20026;-94
2023/12/23 17:48:18;;;;;;;0.10;0.10;;;;;;;;;;6145647;23;20013;-94
2023/12/23 17:51:03;;;;;;;0.20;0.20;;;;;;;;;;6135068;23;20271;-93
2023/12/23 17:54:30;;;;;;;0.10;0.10;;;;;;;;;;6140982;23;20006;-93
2023/12/23 17:57:19;;;;;;;0.10;0.10;;;;;;;;;;6148836;23;20045;-92
2023/12/23 18:00:43;;;;;;;;;;;;;;;;;;;;;
2023/12/23 18:03:40;;;;;;;0.10;0.10;;;;;;;;;;6068226;23;20011;-93
2023/12/23 18:06:47;;;;;;;0.10;0.10;;;;;;;;;;6139107;23;20061;-94
2023/12/23 18:09:47;;;;;;;0.10;0.10;;;;;;;;;;6134688;23;20351;-92
2023/12/23 18:12:27;;;;;;;;;;;;;;;;;;6141561;23;20074;-93
2023/12/23 18:15:21;;;;;;;0.10;0.10;;;;;;;;;;6088875;23;19945;-93
2023/12/23 18:18:49;;;;;;;0.10;0.10;;;;;;;;;;6098575;23;20038;-92
2023/12/23 18:22:02;;;;;;;0.10;0.10;;;;;;;;;;6090605;23;20266;-93
2023/12/23 18:25:27;;;;;;;0.10;0.10;;;;;;;;;;6087709;23;20027;-93
2023/12/23 18:28:13;;;;;;;0.10;0.10;;;;;;;;;;6073051;23;20026;-93
2023/12/23 18:31:26;;;;;;;0.38;0.38;;;;;;;;;;6083314;23;20030;-93
2023/12/23 18:34:30;;;;;;;;;;;;;;;;;;;;;
2023/12/23 18:37:23;;;;;;;0.10;0.10;;;;;;;;;;6105932;23;20027;-93
2023/12/23 18:40:45;;;;;;;;;;;;;;;;;;;;;
2023/12/23 18:43:30;;;;;;;0.10;0.10;;;;;;;;;;6105072;23;20030;-93
2023/12/23 18:46:38;;;;;;;;;;;;;;;;;;;;;
2023/12/23 18:49:22;;;;;;;;;;;;;;;;;;6131742;23;20016;-94
2023/12/23 18:52:29;;;;;;;0.10;0.10;;;;;;;;;;6147187;23;19912;-95
2023/12/23 18:59:09;;;;;;;;;;;;;;;;;;;;;
2023/12/23 19:02:30;;;;;;;0.00;0.00;;;;;;;;;;6164675;23;20089;-93
2023/12/23 19:05:21;;;;;;;;;;;;;;;;;;;;;
2023/12/23 19:11:09;;;;;;;0.10;0.10;;;;;;;;;;6181069;23;20017;-93
2023/12/23 19:14:09;;;;;;;0.10;0.10;;;;;;;;;;6202328;23;20429;-93
2023/12/23 19:23:37;;;;;;;;;;;;;;;;;;;;;
2023/12/23 19:27:04;;;;;;;0.10;0.10;;;;;;;;;;6185244;23;20056;-93
2023/12/23 19:29:58;;;;;;;0.17;0.17;;;;;;;;;;6055641;23;20094;-92
2023/12/23 19:33:12;;;;;;;0.10;0.10;;;;;;;;;;6060846;23;20104;-93
2023/12/23 19:36:21;;;;;;;0.10;0.10;;;;;;;;;;6168577;23;20091;-93
2023/12/23 19:44:21;;;;;;;2.65;2.45;;;;;;;;;;6217093;23;20056;-92
2023/12/23 19:47:20;;;;;;;0.00;0.00;;;;;;;;;;6187305;23;20016;-93
2023/12/23 19:50:45;;;;;;;0.10;0.10;;;;;;;;;;6231180;23;20080;-91
2023/12/23 19:53:52;;;;;;;0.82;0.82;;;;;;;;;;6213961;23;20025;-94
2023/12/23 19:56:55;;;;;;;1.08;0.95;;;;;;;;;;6173602;23;20024;-94
2023/12/23 20:03:01;;;;;;;;;;;;;;;;;;;;;
2023/12/23 20:05:55;;;;;;;0.77;0.77;;;;;;;;;;6177717;23;20025;-93
2023/12/23 20:08:45;;;;;;;0.10;0.10;;;;;;;;;;6177707;23;20008;-93
2023/12/23 20:12:01;;;;;;;0.10;0.10;;;;;;;;;;4506623;27;18259992;-93
2023/12/23 20:15:02;;;;;;;0.10;0.10;;;;;;;;;;5125931;28;20052;-94
2023/12/23 20:18:00;;;;;;;0.00;0.00;;;;;;;;;;5130790;28;20065;-93
2023/12/23 20:21:12;;;;;;;0.00;0.00;;;;;;;;;;5129164;28;20074;-93
2023/12/23 20:23:55;;;;;;;0.38;0.38;;;;;;;;;;5113993;28;20074;-93
2023/12/23 20:26:58;;;;;;;;;;;;;;;;;;;;;
2023/12/23 20:29:43;;;;;;;0.08;0.08;;;;;;;;;;5126271;28;20051;-92
2023/12/23 20:32:32;;;;;;;0.10;0.10;;;;;;;;;;5064774;28;20049;-91
2023/12/23 20:35:11;;;;;;;0.10;0.10;;;;;;;;;;5064066;28;20235;-92
2023/12/23 20:37:57;;;;;;;0.20;0.20;;;;;;;;;;5061631;28;20060;-93
2023/12/23 20:40:41;;;;;;;0.00;0.00;;;;;;;;;;5063467;28;20033;-92
2023/12/23 20:43:25;;;;;;;0.00;0.00;;;;;;;;;;5059975;28;20176;-91
2023/12/23 20:46:12;;;;;;;0.10;0.10;;;;;;;;;;5067161;28;20045;-90
2023/12/23 20:48:47;;;;;;;0.00;0.00;;;;;;;;;;5061610;28;20471;-92
2023/12/23 20:51:29;;;;;;;0.10;0.10;;;;;;;;;;5058750;28;20120;-91
2023/12/23 20:54:07;;;;;;;0.08;0.08;;;;;;;;;;5059653;28;20041;-90
2023/12/23 20:56:46;;;;;;;0.00;0.00;;;;;;;;;;5057644;28;20421;-93
2023/12/23 20:59:26;;;;;;;0.00;0.00;;;;;;;;;;5057570;28;20049;-91
2023/12/23 21:02:16;;;;;;;0.03;0.03;;;;;;;;;;5056600;28;20417;-92
2023/12/23 21:05:00;;;;;;;0.00;0.00;;;;;;;;;;5054159;28;20037;-91
2023/12/23 21:07:35;;;;;;;;;;;;;;;;;;5056218;28;20084;-91
2023/12/23 21:10:14;;;;;;;0.00;0.00;;;;;;;;;;5075503;28;19966;-91
2023/12/23 21:13:13;;;;;;;0.10;0.10;;;;;;;;;;5126483;28;20073;-92
2023/12/23 21:15:59;;;;;;;0.10;0.10;;;;;;;;;;5124513;28;20048;-92
2023/12/23 21:19:02;;;;;;;0.00;0.00;;;;;;;;;;5124454;28;20067;-95
2023/12/23 21:21:57;;;;;;;0.10;0.10;;;;;;;;;;5121099;27;20075;-92
2023/12/23 21:24:51;;;;;;;;;;;;;;;;;;;;;
2023/12/23 21:27:32;;;;;;;0.10;0.10;;;;;;;;;;5117653;28;20052;-93
2023/12/23 21:30:14;;;;;;;0.10;0.10;;;;;;;;;;5114299;28;20107;-93
2023/12/23 21:32:51;;;;;;;0.10;0.10;;;;;;;;;;5104645;28;20139;-94
2023/12/23 21:35:42;;;;;;;0.00;0.00;;;;;;;;;;5235158;22;20072;-92
2023/12/23 21:38:25;;;;;;;0.10;0.10;;;;;;;;;;5051324;28;20339;-93
2023/12/23 21:41:29;;;;;;;;;;;;;;;;;;;;;
2023/12/23 21:44:24;;;;;;;0.00;0.00;;;;;;;;;;5023439;28;20073;-93
2023/12/23 21:47:16;;;;;;;;;;;;;;;;;;;;;
2023/12/23 21:50:20;;;;;;;0.10;0.10;;;;;;;;;;5063410;28;20049;-93
2023/12/23 21:53:13;;;;;;;0.10;0.10;;;;;;;;;;5069844;28;20045;-94
2023/12/23 21:56:22;;;;;;;0.10;0.10;;;;;;;;;;5051920;28;20055;-94
2023/12/23 21:59:12;;;;;;;0.10;0.10;;;;;;;;;;5057221;28;20115;-93
2023/12/23 22:01:56;;;;;;;0.10;0.10;;;;;;;;;;5056050;28;20041;-93
2023/12/23 22:04:47;;;;;;;0.00;0.00;;;;;;;;;;5058464;28;20091;-93
2023/12/23 22:07:34;;;;;;;0.10;0.10;;;;;;;;;;5057783;28;20048;-93
2023/12/23 22:10:22;;;;;;;;;;;;;;;;;;;;;
2023/12/23 22:13:08;;;;;;;0.00;0.00;;;;;;;;;;5072908;28;20267;-93
2023/12/23 22:15:49;;;;;;;0.10;0.10;;;;;;;;;;5059862;28;20096;-94
2023/12/23 22:18:40;;;;;;;0.00;0.00;;;;;;;;;;5056960;28;20045;-93
2023/12/23 22:21:27;;;;;;;0.20;0.20;;;;;;;;;;5043841;28;20071;-92
2023/12/23 22:24:10;;;;;;;0.10;0.10;;;;;;;;;;5076392;28;20053;-91
2023/12/23 22:27:28;;;;;;;0.28;0.25;;;;;;;;;;5061246;28;20120;-93
2023/12/23 22:30:22;;;;;;;0.00;0.00;;;;;;;;;;5073965;28;20049;-92
2023/12/23 22:33:10;;;;;;;0.10;0.10;;;;;;;;;;5066282;28;20048;-93
2023/12/23 22:35:50;;;;;;;0.20;0.20;;;;;;;;;;5057851;28;20067;-93
2023/12/23 22:38:42;;;;;;;0.00;0.00;;;;;;;;;;5059745;28;20112;-93
2023/12/23 22:41:35;;;;;;;0.10;0.10;;;;;;;;;;5072131;28;20047;-92
2023/12/23 22:44:36;;;;;;;0.00;0.00;;;;;;;;;;5070724;28;20080;-93
2023/12/23 23:23:07;;;;;;;0.10;0.10;;;;;;;;;;5034982;23;20325;-92
